sensor_id;sensor_type;location;lat;lon;timestamp;P1;durP1;ratioP1;P2;durP2;ratioP2
7076;SDS011;3579;48.956;9.154;2024-03-08T00:02:14;5.07;;;4.33;;
7076;SDS011;3579;48.956;9.154;2024-03-08T00:04:40;4.43;;;4.03;;
7076;SDS011;3579;48.956;9.154;2024-03-08T00:07:07;4.40;;;4.00;;
7076;SDS011;3579;48.956;9.154;2024-03-08T00:09:33;5.13;;;4.63;;
7076;SDS011;3579;48.956;9.154;2024-03-08T00:11:59;4.70;;;4.20;;
7076;SDS011;3579;48.956;9.154;2024-03-08T00:14:25;5.23;;;4.30;;
7076;SDS011;3579;48.956;9.154;2024-03-08T00:16:51;4.67;;;4.20;;
7076;SDS011;3579;48.956;9.154;2024-03-08T00:19:19;4.37;;;3.97;;
7076;SDS011;3579;48.956;9.154;2024-03-08T00:21:45;4.77;;;4.30;;
7076;SDS011;3579;48.956;9.154;2024-03-08T00:24:11;5.13;;;4.40;;
7076;SDS011;3579;48.956;9.154;2024-03-08T00:26:37;4.63;;;4.13;;
7076;SDS011;3579;48.956;9.154;2024-03-08T00:29:03;4.30;;;3.90;;
7076;SDS011;3579;48.956;9.154;2024-03-08T00:31:29;4.87;;;3.83;;
7076;SDS011;3579;48.956;9.154;2024-03-08T00:33:58;4.40;;;4.00;;
7076;SDS011;3579;48.956;9.154;2024-03-08T00:36:25;4.00;;;3.60;;
7076;SDS011;3579;48.956;9.154;2024-03-08T00:38:51;4.57;;;4.10;;
7076;SDS011;3579;48.956;9.154;2024-03-08T00:41:18;4.47;;;3.73;;
7076;SDS011;3579;48.956;9.154;2024-03-08T00:43:44;4.40;;;3.90;;
7076;SDS011;3579;48.956;9.154;2024-03-08T00:46:13;3.93;;;3.53;;
7076;SDS011;3579;48.956;9.154;2024-03-08T00:48:40;4.30;;;3.90;;
7076;SDS011;3579;48.956;9.154;2024-03-08T00:51:08;4.03;;;3.63;;
7076;SDS011;3579;48.956;9.154;2024-03-08T00:53:34;4.10;;;3.70;;
7076;SDS011;3579;48.956;9.154;2024-03-08T00:56:00;4.83;;;4.30;;
7076;SDS011;3579;48.956;9.154;2024-03-08T00:58:26;4.27;;;3.87;;
7076;SDS011;3579;48.956;9.154;2024-03-08T01:00:53;5.10;;;4.10;;
7076;SDS011;3579;48.956;9.154;2024-03-08T01:03:19;4.47;;;4.07;;
7076;SDS011;3579;48.956;9.154;2024-03-08T01:05:45;4.60;;;4.10;;
7076;SDS011;3579;48.956;9.154;2024-03-08T01:08:12;4.50;;;4.10;;
7076;SDS011;3579;48.956;9.154;2024-03-08T01:10:38;4.40;;;4.00;;
7076;SDS011;3579;48.956;9.154;2024-03-08T01:13:04;4.43;;;4.03;;
7076;SDS011;3579;48.956;9.154;2024-03-08T01:15:30;4.67;;;4.17;;
7076;SDS011;3579;48.956;9.154;2024-03-08T01:17:56;3.90;;;3.50;;
7076;SDS011;3579;48.956;9.154;2024-03-08T01:20:22;4.50;;;4.10;;
7076;SDS011;3579;48.956;9.154;2024-03-08T01:22:48;4.50;;;4.10;;
7076;SDS011;3579;48.956;9.154;2024-03-08T01:25:14;4.33;;;3.70;;
7076;SDS011;3579;48.956;9.154;2024-03-08T01:27:40;4.00;;;3.60;;
7076;SDS011;3579;48.956;9.154;2024-03-08T01:30:06;4.23;;;3.83;;
7076;SDS011;3579;48.956;9.154;2024-03-08T01:32:34;4.23;;;3.83;;
7076;SDS011;3579;48.956;9.154;2024-03-08T01:35:01;3.60;;;3.30;;
7076;SDS011;3579;48.956;9.154;2024-03-08T01:37:28;4.03;;;3.63;;
7076;SDS011;3579;48.956;9.154;2024-03-08T01:39:55;4.33;;;3.93;;
7076;SDS011;3579;48.956;9.154;2024-03-08T01:42:21;4.30;;;3.90;;
7076;SDS011;3579;48.956;9.154;2024-03-08T01:44:47;3.73;;;3.43;;
7076;SDS011;3579;48.956;9.154;2024-03-08T01:47:13;4.00;;;3.60;;
7076;SDS011;3579;48.956;9.154;2024-03-08T01:49:39;3.97;;;3.57;;
7076;SDS011;3579;48.956;9.154;2024-03-08T01:52:06;3.70;;;3.30;;
7076;SDS011;3579;48.956;9.154;2024-03-08T01:54:32;4.30;;;3.90;;
7076;SDS011;3579;48.956;9.154;2024-03-08T01:56:59;4.83;;;4.10;;
7076;SDS011;3579;48.956;9.154;2024-03-08T01:59:25;4.00;;;3.70;;
7076;SDS011;3579;48.956;9.154;2024-03-08T02:01:53;4.17;;;3.77;;
7076;SDS011;3579;48.956;9.154;2024-03-08T02:04:22;4.13;;;3.73;;
7076;SDS011;3579;48.956;9.154;2024-03-08T02:06:48;4.10;;;3.70;;
7076;SDS011;3579;48.956;9.154;2024-03-08T02:09:14;4.27;;;3.87;;
7076;SDS011;3579;48.956;9.154;2024-03-08T02:11:41;3.90;;;3.50;;
7076;SDS011;3579;48.956;9.154;2024-03-08T02:14:07;4.20;;;3.63;;
7076;SDS011;3579;48.956;9.154;2024-03-08T02:16:33;4.30;;;3.90;;
7076;SDS011;3579;48.956;9.154;2024-03-08T02:18:59;3.90;;;3.50;;
7076;SDS011;3579;48.956;9.154;2024-03-08T02:21:26;4.20;;;3.80;;
7076;SDS011;3579;48.956;9.154;2024-03-08T02:23:52;3.67;;;3.37;;
7076;SDS011;3579;48.956;9.154;2024-03-08T02:26:18;4.23;;;3.67;;
7076;SDS011;3579;48.956;9.154;2024-03-08T02:28:45;3.67;;;3.37;;
7076;SDS011;3579;48.956;9.154;2024-03-08T02:31:12;3.80;;;3.50;;
7076;SDS011;3579;48.956;9.154;2024-03-08T02:33:38;3.90;;;3.50;;
7076;SDS011;3579;48.956;9.154;2024-03-08T02:36:04;4.27;;;3.83;;
7076;SDS011;3579;48.956;9.154;2024-03-08T02:38:31;3.60;;;3.30;;
7076;SDS011;3579;48.956;9.154;2024-03-08T02:40:58;3.57;;;3.27;;
7076;SDS011;3579;48.956;9.154;2024-03-08T02:43:24;3.57;;;3.27;;
7076;SDS011;3579;48.956;9.154;2024-03-08T02:45:50;3.60;;;3.30;;
7076;SDS011;3579;48.956;9.154;2024-03-08T02:48:18;3.70;;;3.30;;
7076;SDS011;3579;48.956;9.154;2024-03-08T02:50:44;3.83;;;3.40;;
7076;SDS011;3579;48.956;9.154;2024-03-08T02:53:10;3.93;;;3.33;;
7076;SDS011;3579;48.956;9.154;2024-03-08T02:55:38;4.10;;;3.63;;
7076;SDS011;3579;48.956;9.154;2024-03-08T02:58:06;4.10;;;3.70;;
7076;SDS011;3579;48.956;9.154;2024-03-08T03:00:38;3.87;;;3.50;;
7076;SDS011;3579;48.956;9.154;2024-03-08T03:03:06;4.10;;;3.70;;
7076;SDS011;3579;48.956;9.154;2024-03-08T03:05:32;3.97;;;3.57;;
7076;SDS011;3579;48.956;9.154;2024-03-08T03:07:59;3.97;;;3.57;;
7076;SDS011;3579;48.956;9.154;2024-03-08T03:10:25;3.60;;;3.20;;
7076;SDS011;3579;48.956;9.154;2024-03-08T03:12:51;3.73;;;3.37;;
7076;SDS011;3579;48.956;9.154;2024-03-08T03:15:18;3.97;;;3.43;;
7076;SDS011;3579;48.956;9.154;2024-03-08T03:17:47;3.90;;;3.50;;
7076;SDS011;3579;48.956;9.154;2024-03-08T03:20:16;4.00;;;3.40;;
7076;SDS011;3579;48.956;9.154;2024-03-08T03:22:48;5.57;;;3.13;;
7076;SDS011;3579;48.956;9.154;2024-03-08T03:25:20;3.70;;;3.30;;
7076;SDS011;3579;48.956;9.154;2024-03-08T03:27:54;3.53;;;3.00;;
7076;SDS011;3579;48.956;9.154;2024-03-08T03:30:23;3.83;;;3.47;;
7076;SDS011;3579;48.956;9.154;2024-03-08T03:32:52;3.50;;;3.20;;
7076;SDS011;3579;48.956;9.154;2024-03-08T03:35:20;3.70;;;3.30;;
7076;SDS011;3579;48.956;9.154;2024-03-08T03:37:47;3.50;;;3.20;;
7076;SDS011;3579;48.956;9.154;2024-03-08T03:40:38;3.50;;;3.20;;
7076;SDS011;3579;48.956;9.154;2024-03-08T03:43:07;3.70;;;3.20;;
7076;SDS011;3579;48.956;9.154;2024-03-08T03:45:35;3.23;;;2.90;;
7076;SDS011;3579;48.956;9.154;2024-03-08T03:48:04;3.83;;;3.43;;
7076;SDS011;3579;48.956;9.154;2024-03-08T03:50:32;3.53;;;3.10;;
7076;SDS011;3579;48.956;9.154;2024-03-08T03:53:01;3.40;;;3.10;;
7076;SDS011;3579;48.956;9.154;2024-03-08T03:55:28;3.53;;;3.20;;
7076;SDS011;3579;48.956;9.154;2024-03-08T03:57:54;3.57;;;3.27;;
7076;SDS011;3579;48.956;9.154;2024-03-08T04:00:20;3.37;;;3.07;;
7076;SDS011;3579;48.956;9.154;2024-03-08T04:02:46;3.57;;;3.27;;
7076;SDS011;3579;48.956;9.154;2024-03-08T04:05:12;3.83;;;3.43;;
7076;SDS011;3579;48.956;9.154;2024-03-08T04:07:38;3.67;;;3.37;;
7076;SDS011;3579;48.956;9.154;2024-03-08T04:10:06;3.50;;;3.20;;
7076;SDS011;3579;48.956;9.154;2024-03-08T04:12:33;3.17;;;2.87;;
7076;SDS011;3579;48.956;9.154;2024-03-08T04:15:00;3.53;;;3.23;;
7076;SDS011;3579;48.956;9.154;2024-03-08T04:17:26;3.40;;;3.10;;
7076;SDS011;3579;48.956;9.154;2024-03-08T04:19:52;3.63;;;3.33;;
7076;SDS011;3579;48.956;9.154;2024-03-08T04:22:19;3.40;;;3.10;;
7076;SDS011;3579;48.956;9.154;2024-03-08T04:24:45;3.43;;;3.13;;
7076;SDS011;3579;48.956;9.154;2024-03-08T04:27:12;3.63;;;3.30;;
7076;SDS011;3579;48.956;9.154;2024-03-08T04:29:39;3.10;;;2.80;;
7076;SDS011;3579;48.956;9.154;2024-03-08T04:32:06;3.40;;;3.10;;
7076;SDS011;3579;48.956;9.154;2024-03-08T04:34:34;3.40;;;3.10;;
7076;SDS011;3579;48.956;9.154;2024-03-08T04:37:00;3.60;;;3.20;;
7076;SDS011;3579;48.956;9.154;2024-03-08T04:39:27;3.90;;;3.50;;
7076;SDS011;3579;48.956;9.154;2024-03-08T04:41:54;3.50;;;3.17;;
7076;SDS011;3579;48.956;9.154;2024-03-08T04:44:23;3.60;;;3.30;;
7076;SDS011;3579;48.956;9.154;2024-03-08T04:46:52;3.63;;;3.27;;
7076;SDS011;3579;48.956;9.154;2024-03-08T04:49:18;3.70;;;3.40;;
7076;SDS011;3579;48.956;9.154;2024-03-08T04:51:44;3.83;;;3.53;;
7076;SDS011;3579;48.956;9.154;2024-03-08T04:54:10;3.50;;;3.20;;
7076;SDS011;3579;48.956;9.154;2024-03-08T04:56:36;3.63;;;3.33;;
7076;SDS011;3579;48.956;9.154;2024-03-08T04:59:02;3.90;;;3.50;;
7076;SDS011;3579;48.956;9.154;2024-03-08T05:01:28;4.07;;;3.67;;
7076;SDS011;3579;48.956;9.154;2024-03-08T05:03:54;3.40;;;3.10;;
7076;SDS011;3579;48.956;9.154;2024-03-08T05:06:20;4.63;;;3.53;;
7076;SDS011;3579;48.956;9.154;2024-03-08T05:08:46;3.77;;;3.37;;
7076;SDS011;3579;48.956;9.154;2024-03-08T05:11:12;3.47;;;3.17;;
7076;SDS011;3579;48.956;9.154;2024-03-08T05:13:40;3.57;;;3.27;;
7076;SDS011;3579;48.956;9.154;2024-03-08T05:16:06;3.43;;;3.13;;
7076;SDS011;3579;48.956;9.154;2024-03-08T05:18:33;4.13;;;3.57;;
7076;SDS011;3579;48.956;9.154;2024-03-08T05:21:00;4.20;;;3.70;;
7076;SDS011;3579;48.956;9.154;2024-03-08T05:23:32;4.10;;;3.47;;
7076;SDS011;3579;48.956;9.154;2024-03-08T05:25:59;4.03;;;3.27;;
7076;SDS011;3579;48.956;9.154;2024-03-08T05:28:26;3.73;;;3.30;;
7076;SDS011;3579;48.956;9.154;2024-03-08T05:30:52;3.73;;;3.43;;
7076;SDS011;3579;48.956;9.154;2024-03-08T05:33:18;3.80;;;3.50;;
7076;SDS011;3579;48.956;9.154;2024-03-08T05:35:44;3.57;;;3.27;;
7076;SDS011;3579;48.956;9.154;2024-03-08T05:38:10;3.63;;;3.33;;
7076;SDS011;3579;48.956;9.154;2024-03-08T05:40:38;3.83;;;3.43;;
7076;SDS011;3579;48.956;9.154;2024-03-08T05:43:04;3.70;;;3.40;;
7076;SDS011;3579;48.956;9.154;2024-03-08T05:45:30;3.67;;;3.17;;
7076;SDS011;3579;48.956;9.154;2024-03-08T05:47:56;3.70;;;3.40;;
7076;SDS011;3579;48.956;9.154;2024-03-08T05:50:22;4.00;;;3.60;;
7076;SDS011;3579;48.956;9.154;2024-03-08T05:52:48;4.13;;;3.60;;
7076;SDS011;3579;48.956;9.154;2024-03-08T05:55:15;4.30;;;3.90;;
7076;SDS011;3579;48.956;9.154;2024-03-08T05:57:41;6.67;;;3.77;;
7076;SDS011;3579;48.956;9.154;2024-03-08T06:00:08;3.40;;;3.10;;
7076;SDS011;3579;48.956;9.154;2024-03-08T06:02:41;4.53;;;3.60;;
7076;SDS011;3579;48.956;9.154;2024-03-08T06:05:10;3.93;;;3.53;;
7076;SDS011;3579;48.956;9.154;2024-03-08T06:07:37;4.13;;;3.73;;
7076;SDS011;3579;48.956;9.154;2024-03-08T06:10:09;4.13;;;3.63;;
7076;SDS011;3579;48.956;9.154;2024-03-08T06:12:36;3.60;;;3.30;;
7076;SDS011;3579;48.956;9.154;2024-03-08T06:15:07;3.93;;;3.40;;
7076;SDS011;3579;48.956;9.154;2024-03-08T06:17:40;3.80;;;3.40;;
7076;SDS011;3579;48.956;9.154;2024-03-08T06:20:07;3.73;;;3.33;;
7076;SDS011;3579;48.956;9.154;2024-03-08T06:22:39;3.70;;;3.30;;
7076;SDS011;3579;48.956;9.154;2024-03-08T06:25:11;3.97;;;3.57;;
7076;SDS011;3579;48.956;9.154;2024-03-08T06:27:41;3.80;;;3.40;;
7076;SDS011;3579;48.956;9.154;2024-03-08T06:30:08;3.77;;;3.27;;
7076;SDS011;3579;48.956;9.154;2024-03-08T06:32:35;4.13;;;3.37;;
7076;SDS011;3579;48.956;9.154;2024-03-08T06:35:05;3.43;;;3.13;;
7076;SDS011;3579;48.956;9.154;2024-03-08T06:37:32;3.60;;;3.30;;
7076;SDS011;3579;48.956;9.154;2024-03-08T06:39:59;3.87;;;3.20;;
7076;SDS011;3579;48.956;9.154;2024-03-08T06:42:27;3.70;;;3.20;;
7076;SDS011;3579;48.956;9.154;2024-03-08T06:44:53;3.90;;;3.57;;
7076;SDS011;3579;48.956;9.154;2024-03-08T06:47:21;3.70;;;3.37;;
7076;SDS011;3579;48.956;9.154;2024-03-08T06:49:51;3.40;;;3.00;;
7076;SDS011;3579;48.956;9.154;2024-03-08T06:52:17;3.57;;;3.27;;
7076;SDS011;3579;48.956;9.154;2024-03-08T06:54:43;3.63;;;3.20;;
7076;SDS011;3579;48.956;9.154;2024-03-08T06:57:09;3.50;;;3.20;;
7076;SDS011;3579;48.956;9.154;2024-03-08T06:59:36;3.20;;;2.90;;
7076;SDS011;3579;48.956;9.154;2024-03-08T07:02:02;3.40;;;3.10;;
7076;SDS011;3579;48.956;9.154;2024-03-08T07:04:29;3.33;;;3.03;;
7076;SDS011;3579;48.956;9.154;2024-03-08T07:06:56;3.87;;;3.47;;
7076;SDS011;3579;48.956;9.154;2024-03-08T07:09:26;3.50;;;3.20;;
7076;SDS011;3579;48.956;9.154;2024-03-08T07:11:52;3.50;;;3.20;;
7076;SDS011;3579;48.956;9.154;2024-03-08T07:14:23;3.50;;;3.20;;
7076;SDS011;3579;48.956;9.154;2024-03-08T07:16:49;4.00;;;3.60;;
7076;SDS011;3579;48.956;9.154;2024-03-08T07:19:16;3.80;;;3.40;;
7076;SDS011;3579;48.956;9.154;2024-03-08T07:21:45;3.23;;;2.93;;
7076;SDS011;3579;48.956;9.154;2024-03-08T07:24:13;3.97;;;3.57;;
7076;SDS011;3579;48.956;9.154;2024-03-08T07:26:42;3.60;;;3.30;;
7076;SDS011;3579;48.956;9.154;2024-03-08T07:29:15;3.60;;;3.30;;
7076;SDS011;3579;48.956;9.154;2024-03-08T07:31:41;4.00;;;3.60;;
7076;SDS011;3579;48.956;9.154;2024-03-08T07:34:07;3.63;;;3.33;;
7076;SDS011;3579;48.956;9.154;2024-03-08T07:36:34;4.17;;;3.77;;
7076;SDS011;3579;48.956;9.154;2024-03-08T07:39:00;3.80;;;3.40;;
7076;SDS011;3579;48.956;9.154;2024-03-08T07:41:27;3.43;;;3.13;;
7076;SDS011;3579;48.956;9.154;2024-03-08T07:43:55;4.23;;;3.50;;
7076;SDS011;3579;48.956;9.154;2024-03-08T07:46:21;4.10;;;3.73;;
7076;SDS011;3579;48.956;9.154;2024-03-08T07:48:48;3.87;;;3.47;;
7076;SDS011;3579;48.956;9.154;2024-03-08T07:51:17;3.40;;;3.10;;
7076;SDS011;3579;48.956;9.154;2024-03-08T07:53:43;3.50;;;3.20;;
7076;SDS011;3579;48.956;9.154;2024-03-08T07:56:10;3.73;;;3.13;;
7076;SDS011;3579;48.956;9.154;2024-03-08T07:58:38;4.03;;;3.43;;
7076;SDS011;3579;48.956;9.154;2024-03-08T08:01:06;3.70;;;3.40;;
7076;SDS011;3579;48.956;9.154;2024-03-08T08:03:32;3.60;;;3.30;;
7076;SDS011;3579;48.956;9.154;2024-03-08T08:05:58;4.40;;;3.70;;
7076;SDS011;3579;48.956;9.154;2024-03-08T08:08:24;3.87;;;3.33;;
7076;SDS011;3579;48.956;9.154;2024-03-08T08:10:51;4.67;;;3.90;;
7076;SDS011;3579;48.956;9.154;2024-03-08T08:13:18;4.00;;;3.60;;
7076;SDS011;3579;48.956;9.154;2024-03-08T08:15:44;3.80;;;3.33;;
7076;SDS011;3579;48.956;9.154;2024-03-08T08:18:11;3.87;;;3.47;;
7076;SDS011;3579;48.956;9.154;2024-03-08T08:20:37;4.57;;;3.70;;
7076;SDS011;3579;48.956;9.154;2024-03-08T08:23:03;3.53;;;3.13;;
7076;SDS011;3579;48.956;9.154;2024-03-08T08:25:30;4.40;;;3.70;;
7076;SDS011;3579;48.956;9.154;2024-03-08T08:27:59;4.13;;;3.70;;
7076;SDS011;3579;48.956;9.154;2024-03-08T08:30:25;3.90;;;3.47;;
7076;SDS011;3579;48.956;9.154;2024-03-08T08:32:52;4.10;;;3.70;;
7076;SDS011;3579;48.956;9.154;2024-03-08T08:35:18;4.30;;;3.90;;
7076;SDS011;3579;48.956;9.154;2024-03-08T08:37:45;3.87;;;3.30;;
7076;SDS011;3579;48.956;9.154;2024-03-08T08:40:12;4.10;;;3.67;;
7076;SDS011;3579;48.956;9.154;2024-03-08T08:42:43;4.30;;;3.90;;
7076;SDS011;3579;48.956;9.154;2024-03-08T08:45:11;4.33;;;3.77;;
7076;SDS011;3579;48.956;9.154;2024-03-08T08:47:39;4.67;;;3.70;;
7076;SDS011;3579;48.956;9.154;2024-03-08T08:50:08;4.13;;;3.70;;
7076;SDS011;3579;48.956;9.154;2024-03-08T08:52:37;4.50;;;3.87;;
7076;SDS011;3579;48.956;9.154;2024-03-08T08:55:04;4.77;;;4.07;;
7076;SDS011;3579;48.956;9.154;2024-03-08T08:57:32;4.13;;;3.73;;
7076;SDS011;3579;48.956;9.154;2024-03-08T09:00:01;4.67;;;4.00;;
7076;SDS011;3579;48.956;9.154;2024-03-08T09:02:33;3.87;;;3.53;;
7076;SDS011;3579;48.956;9.154;2024-03-08T09:05:00;4.73;;;4.10;;
7076;SDS011;3579;48.956;9.154;2024-03-08T09:07:29;4.30;;;3.90;;
7076;SDS011;3579;48.956;9.154;2024-03-08T09:09:55;4.13;;;3.67;;
7076;SDS011;3579;48.956;9.154;2024-03-08T09:12:23;4.17;;;3.73;;
7076;SDS011;3579;48.956;9.154;2024-03-08T09:14:50;4.27;;;3.87;;
7076;SDS011;3579;48.956;9.154;2024-03-08T09:17:16;4.40;;;4.00;;
7076;SDS011;3579;48.956;9.154;2024-03-08T09:19:46;4.30;;;3.90;;
7076;SDS011;3579;48.956;9.154;2024-03-08T09:22:13;4.93;;;4.20;;
7076;SDS011;3579;48.956;9.154;2024-03-08T09:24:39;4.77;;;4.10;;
7076;SDS011;3579;48.956;9.154;2024-03-08T09:27:05;4.47;;;4.07;;
7076;SDS011;3579;48.956;9.154;2024-03-08T09:29:31;4.50;;;3.83;;
7076;SDS011;3579;48.956;9.154;2024-03-08T09:31:57;4.13;;;3.70;;
7076;SDS011;3579;48.956;9.154;2024-03-08T09:34:23;5.00;;;4.20;;
7076;SDS011;3579;48.956;9.154;2024-03-08T09:36:50;4.13;;;3.73;;
7076;SDS011;3579;48.956;9.154;2024-03-08T09:39:17;4.43;;;3.87;;
7076;SDS011;3579;48.956;9.154;2024-03-08T09:41:46;4.30;;;3.90;;
7076;SDS011;3579;48.956;9.154;2024-03-08T09:44:16;4.20;;;3.80;;
7076;SDS011;3579;48.956;9.154;2024-03-08T09:46:42;4.47;;;4.03;;
7076;SDS011;3579;48.956;9.154;2024-03-08T09:49:08;4.87;;;3.80;;
7076;SDS011;3579;48.956;9.154;2024-03-08T09:51:37;4.20;;;3.80;;
7076;SDS011;3579;48.956;9.154;2024-03-08T09:54:06;3.90;;;3.50;;
7076;SDS011;3579;48.956;9.154;2024-03-08T09:56:32;4.30;;;3.80;;
7076;SDS011;3579;48.956;9.154;2024-03-08T09:58:59;4.00;;;3.60;;
7076;SDS011;3579;48.956;9.154;2024-03-08T10:01:31;4.90;;;3.90;;
7076;SDS011;3579;48.956;9.154;2024-03-08T10:03:57;5.17;;;3.93;;
7076;SDS011;3579;48.956;9.154;2024-03-08T10:06:24;4.33;;;3.93;;
7076;SDS011;3579;48.956;9.154;2024-03-08T10:08:51;4.37;;;3.93;;
7076;SDS011;3579;48.956;9.154;2024-03-08T10:11:17;4.00;;;3.60;;
7076;SDS011;3579;48.956;9.154;2024-03-08T10:13:44;5.03;;;3.97;;
7076;SDS011;3579;48.956;9.154;2024-03-08T10:16:12;4.27;;;3.87;;
7076;SDS011;3579;48.956;9.154;2024-03-08T10:18:38;5.00;;;4.27;;
7076;SDS011;3579;48.956;9.154;2024-03-08T10:21:05;4.07;;;3.67;;
7076;SDS011;3579;48.956;9.154;2024-03-08T10:23:32;4.27;;;3.80;;
7076;SDS011;3579;48.956;9.154;2024-03-08T10:28:46;4.60;;;3.67;;
7076;SDS011;3579;48.956;9.154;2024-03-08T10:31:16;4.60;;;4.10;;
7076;SDS011;3579;48.956;9.154;2024-03-08T10:33:44;6.03;;;3.90;;
7076;SDS011;3579;48.956;9.154;2024-03-08T10:36:11;4.83;;;3.77;;
7076;SDS011;3579;48.956;9.154;2024-03-08T10:38:39;4.30;;;3.90;;
7076;SDS011;3579;48.956;9.154;2024-03-08T10:41:07;4.93;;;4.17;;
7076;SDS011;3579;48.956;9.154;2024-03-08T10:49:18;4.33;;;3.90;;
7076;SDS011;3579;48.956;9.154;2024-03-08T10:51:54;4.60;;;3.93;;
7076;SDS011;3579;48.956;9.154;2024-03-08T10:54:24;4.67;;;3.80;;
7076;SDS011;3579;48.956;9.154;2024-03-08T10:56:52;4.20;;;3.70;;
7076;SDS011;3579;48.956;9.154;2024-03-08T10:59:20;4.70;;;3.97;;
7076;SDS011;3579;48.956;9.154;2024-03-08T11:01:47;4.33;;;3.80;;
7076;SDS011;3579;48.956;9.154;2024-03-08T11:04:13;4.00;;;3.60;;
7076;SDS011;3579;48.956;9.154;2024-03-08T11:06:42;4.20;;;3.77;;
7076;SDS011;3579;48.956;9.154;2024-03-08T11:09:26;4.50;;;4.10;;
7076;SDS011;3579;48.956;9.154;2024-03-08T11:14:51;4.60;;;4.10;;
7076;SDS011;3579;48.956;9.154;2024-03-08T11:17:26;4.40;;;4.00;;
7076;SDS011;3579;48.956;9.154;2024-03-08T11:20:00;4.17;;;3.73;;
7076;SDS011;3579;48.956;9.154;2024-03-08T11:22:28;4.33;;;3.83;;
7076;SDS011;3579;48.956;9.154;2024-03-08T11:24:58;5.00;;;3.97;;
7076;SDS011;3579;48.956;9.154;2024-03-08T11:27:30;4.30;;;3.90;;
7076;SDS011;3579;48.956;9.154;2024-03-08T11:30:00;4.70;;;4.17;;
7076;SDS011;3579;48.956;9.154;2024-03-08T11:32:44;4.00;;;3.60;;
7076;SDS011;3579;48.956;9.154;2024-03-08T11:35:21;4.20;;;3.67;;
7076;SDS011;3579;48.956;9.154;2024-03-08T11:37:48;4.00;;;3.60;;
7076;SDS011;3579;48.956;9.154;2024-03-08T11:40:14;4.23;;;3.80;;
7076;SDS011;3579;48.956;9.154;2024-03-08T11:42:45;4.30;;;3.80;;
7076;SDS011;3579;48.956;9.154;2024-03-08T11:45:15;3.83;;;3.40;;
7076;SDS011;3579;48.956;9.154;2024-03-08T11:47:43;4.70;;;3.60;;
7076;SDS011;3579;48.956;9.154;2024-03-08T11:50:12;4.27;;;3.87;;
7076;SDS011;3579;48.956;9.154;2024-03-08T11:52:38;4.33;;;3.67;;
7076;SDS011;3579;48.956;9.154;2024-03-08T11:55:04;4.83;;;4.03;;
7076;SDS011;3579;48.956;9.154;2024-03-08T11:57:43;3.83;;;3.30;;
7076;SDS011;3579;48.956;9.154;2024-03-08T12:00:16;4.97;;;3.70;;
7076;SDS011;3579;48.956;9.154;2024-03-08T12:03:00;4.50;;;4.03;;
7076;SDS011;3579;48.956;9.154;2024-03-08T12:05:27;4.13;;;3.73;;
7076;SDS011;3579;48.956;9.154;2024-03-08T12:07:57;4.70;;;4.20;;
7076;SDS011;3579;48.956;9.154;2024-03-08T12:10:24;4.40;;;4.00;;
7076;SDS011;3579;48.956;9.154;2024-03-08T12:12:54;4.10;;;3.70;;
7076;SDS011;3579;48.956;9.154;2024-03-08T12:15:24;4.10;;;3.70;;
7076;SDS011;3579;48.956;9.154;2024-03-08T12:17:52;4.17;;;3.77;;
7076;SDS011;3579;48.956;9.154;2024-03-08T12:22:57;4.77;;;4.03;;
7076;SDS011;3579;48.956;9.154;2024-03-08T12:25:27;4.73;;;3.60;;
7076;SDS011;3579;48.956;9.154;2024-03-08T12:28:06;3.63;;;3.33;;
7076;SDS011;3579;48.956;9.154;2024-03-08T12:30:36;5.30;;;3.80;;
7076;SDS011;3579;48.956;9.154;2024-03-08T12:33:18;4.10;;;3.70;;
7076;SDS011;3579;48.956;9.154;2024-03-08T12:35:53;4.00;;;3.60;;
7076;SDS011;3579;48.956;9.154;2024-03-08T12:38:21;4.37;;;3.80;;
7076;SDS011;3579;48.956;9.154;2024-03-08T12:40:59;4.10;;;3.70;;
7076;SDS011;3579;48.956;9.154;2024-03-08T12:43:26;5.33;;;4.10;;
7076;SDS011;3579;48.956;9.154;2024-03-08T12:45:55;4.33;;;3.80;;
7076;SDS011;3579;48.956;9.154;2024-03-08T12:48:21;3.97;;;3.57;;
7076;SDS011;3579;48.956;9.154;2024-03-08T12:50:47;4.67;;;4.07;;
7076;SDS011;3579;48.956;9.154;2024-03-08T12:53:14;4.10;;;3.67;;
7076;SDS011;3579;48.956;9.154;2024-03-08T12:55:40;4.63;;;3.90;;
7076;SDS011;3579;48.956;9.154;2024-03-08T12:58:07;4.80;;;3.73;;
7076;SDS011;3579;48.956;9.154;2024-03-08T13:00:34;4.97;;;3.70;;
7076;SDS011;3579;48.956;9.154;2024-03-08T13:03:02;4.60;;;4.10;;
7076;SDS011;3579;48.956;9.154;2024-03-08T13:05:28;5.27;;;4.23;;
7076;SDS011;3579;48.956;9.154;2024-03-08T13:07:55;4.00;;;3.60;;
7076;SDS011;3579;48.956;9.154;2024-03-08T13:10:22;4.30;;;3.90;;
7076;SDS011;3579;48.956;9.154;2024-03-08T13:12:48;3.97;;;3.57;;
7076;SDS011;3579;48.956;9.154;2024-03-08T13:15:15;4.63;;;4.03;;
7076;SDS011;3579;48.956;9.154;2024-03-08T13:17:46;4.17;;;3.77;;
7076;SDS011;3579;48.956;9.154;2024-03-08T13:20:14;4.43;;;4.03;;
7076;SDS011;3579;48.956;9.154;2024-03-08T13:22:45;4.47;;;4.07;;
7076;SDS011;3579;48.956;9.154;2024-03-08T13:25:12;5.23;;;4.33;;
7076;SDS011;3579;48.956;9.154;2024-03-08T13:27:41;4.00;;;3.60;;
7076;SDS011;3579;48.956;9.154;2024-03-08T13:30:08;4.53;;;3.80;;
7076;SDS011;3579;48.956;9.154;2024-03-08T13:32:40;4.53;;;4.10;;
7076;SDS011;3579;48.956;9.154;2024-03-08T13:35:09;4.40;;;4.00;;
7076;SDS011;3579;48.956;9.154;2024-03-08T13:37:41;4.20;;;3.80;;
7076;SDS011;3579;48.956;9.154;2024-03-08T13:40:07;4.73;;;4.00;;
7076;SDS011;3579;48.956;9.154;2024-03-08T13:42:40;4.77;;;3.93;;
7076;SDS011;3579;48.956;9.154;2024-03-08T13:45:10;5.23;;;4.43;;
7076;SDS011;3579;48.956;9.154;2024-03-08T13:47:37;4.57;;;4.07;;
7076;SDS011;3579;48.956;9.154;2024-03-08T13:50:05;4.80;;;4.10;;
7076;SDS011;3579;48.956;9.154;2024-03-08T13:52:33;4.67;;;4.10;;
7076;SDS011;3579;48.956;9.154;2024-03-08T13:55:00;4.50;;;4.10;;
7076;SDS011;3579;48.956;9.154;2024-03-08T13:57:26;3.90;;;3.50;;
7076;SDS011;3579;48.956;9.154;2024-03-08T13:59:53;4.70;;;3.90;;
7076;SDS011;3579;48.956;9.154;2024-03-08T14:02:19;4.53;;;4.10;;
7076;SDS011;3579;48.956;9.154;2024-03-08T14:04:47;4.57;;;4.03;;
7076;SDS011;3579;48.956;9.154;2024-03-08T14:07:15;4.20;;;3.60;;
7076;SDS011;3579;48.956;9.154;2024-03-08T14:09:41;5.00;;;3.80;;
7076;SDS011;3579;48.956;9.154;2024-03-08T14:12:09;4.67;;;4.10;;
7076;SDS011;3579;48.956;9.154;2024-03-08T14:14:35;5.33;;;4.00;;
7076;SDS011;3579;48.956;9.154;2024-03-08T14:17:02;4.90;;;4.00;;
7076;SDS011;3579;48.956;9.154;2024-03-08T14:19:29;4.73;;;4.20;;
7076;SDS011;3579;48.956;9.154;2024-03-08T14:21:59;4.50;;;4.00;;
7076;SDS011;3579;48.956;9.154;2024-03-08T14:24:26;4.27;;;3.83;;
7076;SDS011;3579;48.956;9.154;2024-03-08T14:26:52;4.30;;;3.90;;
7076;SDS011;3579;48.956;9.154;2024-03-08T14:29:19;4.43;;;4.00;;
7076;SDS011;3579;48.956;9.154;2024-03-08T14:31:45;4.27;;;3.83;;
7076;SDS011;3579;48.956;9.154;2024-03-08T14:34:11;4.13;;;3.73;;
7076;SDS011;3579;48.956;9.154;2024-03-08T14:36:39;4.57;;;3.90;;
7076;SDS011;3579;48.956;9.154;2024-03-08T14:39:05;5.17;;;3.87;;
7076;SDS011;3579;48.956;9.154;2024-03-08T14:41:33;4.47;;;4.07;;
7076;SDS011;3579;48.956;9.154;2024-03-08T14:43:59;6.70;;;4.30;;
7076;SDS011;3579;48.956;9.154;2024-03-08T14:46:25;4.90;;;4.40;;
7076;SDS011;3579;48.956;9.154;2024-03-08T14:48:52;4.43;;;3.93;;
7076;SDS011;3579;48.956;9.154;2024-03-08T14:51:19;4.67;;;4.07;;
7076;SDS011;3579;48.956;9.154;2024-03-08T14:53:48;4.10;;;3.70;;
7076;SDS011;3579;48.956;9.154;2024-03-08T14:56:15;5.03;;;4.23;;
7076;SDS011;3579;48.956;9.154;2024-03-08T14:58:44;3.97;;;3.57;;
7076;SDS011;3579;48.956;9.154;2024-03-08T15:01:12;4.83;;;4.30;;
7076;SDS011;3579;48.956;9.154;2024-03-08T15:03:41;4.03;;;3.63;;
7076;SDS011;3579;48.956;9.154;2024-03-08T15:06:10;4.00;;;3.60;;
7076;SDS011;3579;48.956;9.154;2024-03-08T15:08:37;5.50;;;4.03;;
7076;SDS011;3579;48.956;9.154;2024-03-08T15:11:05;4.40;;;4.00;;
7076;SDS011;3579;48.956;9.154;2024-03-08T15:13:32;4.27;;;3.83;;
7076;SDS011;3579;48.956;9.154;2024-03-08T15:16:07;4.30;;;3.90;;
7076;SDS011;3579;48.956;9.154;2024-03-08T15:18:34;4.77;;;4.10;;
7076;SDS011;3579;48.956;9.154;2024-03-08T15:21:02;4.60;;;3.83;;
7076;SDS011;3579;48.956;9.154;2024-03-08T15:23:33;4.40;;;4.00;;
7076;SDS011;3579;48.956;9.154;2024-03-08T15:26:02;5.13;;;3.57;;
7076;SDS011;3579;48.956;9.154;2024-03-08T15:28:36;4.13;;;3.73;;
7076;SDS011;3579;48.956;9.154;2024-03-08T15:31:03;5.47;;;3.83;;
7076;SDS011;3579;48.956;9.154;2024-03-08T15:33:36;4.57;;;3.50;;